AAL5636 KDCA-KPHL
Flight info
| Callsign | AAL5636 |
|---|---|
| Flight time | 0h 28m |
| Altitude | 11000 |
| Route | DOCTR5 DOCTR ODESA |
| Aircraft | A319/M-SDE3FGHIRWY/LB1 |
Departure
| Time | 2026-05-06 15:23 |
|---|---|
| Airport | Ronald Reagan Washington National Airport (KDCA) |
Arrival
| Time | 2026-05-06 15:51 |
|---|---|
| Airport | Philadelphia International Airport (KPHL) |
| Time | Latitude | Longitude | Altitude | Speed | Heading |
|---|---|---|---|---|---|
| 2026-05-06 15:14 | 38.85455 | -77.04080 | 24 ft | 0 kts | 242° |
| 2026-05-06 15:15 | 38.85459 | -77.04071 | 29 ft | 4 kts | 249° |
| 2026-05-06 15:15 | 38.85462 | -77.04038 | 27 ft | 4 kts | 292° |
| 2026-05-06 15:16 | 38.85447 | -77.04011 | 27 ft | 4 kts | 332° |
| 2026-05-06 15:16 | 38.85434 | -77.04005 | 28 ft | 0 kts | 355° |
| 2026-05-06 15:18 | 38.85435 | -77.04005 | 28 ft | 1 kts | 355° |
| 2026-05-06 15:18 | 38.85460 | -77.04008 | 27 ft | 6 kts | 354° |
| 2026-05-06 15:18 | 38.85504 | -77.04016 | 26 ft | 7 kts | 349° |
| 2026-05-06 15:19 | 38.85549 | -77.04012 | 24 ft | 7 kts | 30° |
| 2026-05-06 15:19 | 38.85576 | -77.03963 | 25 ft | 7 kts | 30° |
| 2026-05-06 15:19 | 38.85625 | -77.03964 | 25 ft | 8 kts | 355° |
| 2026-05-06 15:19 | 38.85690 | -77.03970 | 27 ft | 11 kts | 355° |
| 2026-05-06 15:20 | 38.85773 | -77.03979 | 30 ft | 14 kts | 354° |
| 2026-05-06 15:20 | 38.85881 | -77.03991 | 26 ft | 17 kts | 358° |
| 2026-05-06 15:20 | 38.85976 | -77.03966 | 24 ft | 9 kts | 17° |
| 2026-05-06 15:20 | 38.86005 | -77.03955 | 24 ft | 0 kts | 16° |
| 2026-05-06 15:21 | 38.86009 | -77.03954 | 24 ft | 3 kts | 16° |
| 2026-05-06 15:21 | 38.86053 | -77.03937 | 24 ft | 8 kts | 16° |
| 2026-05-06 15:21 | 38.86102 | -77.03890 | 23 ft | 9 kts | 78° |
| 2026-05-06 15:22 | 38.86051 | -77.03863 | 24 ft | 13 kts | 176° |
| 2026-05-06 15:22 | 38.85775 | -77.03839 | 25 ft | 69 kts | 175° |
| 2026-05-06 15:22 | 38.85099 | -77.03771 | 27 ft | 125 kts | 175° |
| 2026-05-06 15:22 | 38.84192 | -77.03685 | 536 ft | 128 kts | 178° |
| 2026-05-06 15:23 | 38.83305 | -77.03581 | 1224 ft | 129 kts | 175° |
| 2026-05-06 15:23 | 38.82417 | -77.03394 | 1925 ft | 133 kts | 178° |
| 2026-05-06 15:23 | 38.81438 | -77.03186 | 2391 ft | 153 kts | 181° |
| 2026-05-06 15:23 | 38.80300 | -77.02953 | 2775 ft | 179 kts | 180° |
| 2026-05-06 15:24 | 38.78997 | -77.02685 | 3355 ft | 198 kts | 180° |
| 2026-05-06 15:24 | 38.77612 | -77.02385 | 4184 ft | 206 kts | 180° |
| 2026-05-06 15:24 | 38.76180 | -77.01913 | 4978 ft | 227 kts | 161° |
| 2026-05-06 15:24 | 38.75049 | -77.00357 | 5801 ft | 257 kts | 120° |
| 2026-05-06 15:25 | 38.74642 | -76.98052 | 6591 ft | 278 kts | 97° |
| 2026-05-06 15:25 | 38.74807 | -76.95469 | 7059 ft | 308 kts | 72° |
| 2026-05-06 15:25 | 38.75804 | -76.92985 | 7783 ft | 319 kts | 53° |
| 2026-05-06 15:25 | 38.77209 | -76.90771 | 8732 ft | 322 kts | 42° |
| 2026-05-06 15:26 | 38.78929 | -76.88923 | 9677 ft | 324 kts | 29° |
| 2026-05-06 15:26 | 38.80850 | -76.87336 | 10361 ft | 337 kts | 27° |
| 2026-05-06 15:26 | 38.82907 | -76.85687 | 10691 ft | 361 kts | 29° |
| 2026-05-06 15:26 | 38.84963 | -76.83639 | 10939 ft | 385 kts | 40° |
| 2026-05-06 15:27 | 38.86803 | -76.81040 | 11018 ft | 407 kts | 52° |
| 2026-05-06 15:27 | 38.88338 | -76.77855 | 11025 ft | 431 kts | 63° |
| 2026-05-06 15:27 | 38.89613 | -76.74338 | 11015 ft | 438 kts | 65° |
| 2026-05-06 15:27 | 38.90916 | -76.70790 | 11021 ft | 440 kts | 65° |
| 2026-05-06 15:28 | 38.92243 | -76.67238 | 11034 ft | 442 kts | 64° |
| 2026-05-06 15:28 | 38.93586 | -76.63688 | 11022 ft | 442 kts | 64° |
| 2026-05-06 15:28 | 38.94914 | -76.60143 | 11031 ft | 441 kts | 65° |
| 2026-05-06 15:28 | 38.96173 | -76.56541 | 11033 ft | 441 kts | 67° |
| 2026-05-06 15:29 | 38.97363 | -76.52911 | 11038 ft | 441 kts | 68° |
| 2026-05-06 15:29 | 38.98516 | -76.49265 | 11029 ft | 441 kts | 69° |
| 2026-05-06 15:29 | 38.99673 | -76.45601 | 11014 ft | 441 kts | 67° |
| 2026-05-06 15:29 | 39.01130 | -76.42133 | 11014 ft | 442 kts | 56° |
| 2026-05-06 15:30 | 39.03024 | -76.39033 | 11030 ft | 440 kts | 45° |
| 2026-05-06 15:30 | 39.05239 | -76.36319 | 11032 ft | 439 kts | 40° |
| 2026-05-06 15:30 | 39.07484 | -76.33663 | 11039 ft | 439 kts | 40° |
| 2026-05-06 15:30 | 39.09731 | -76.30997 | 11038 ft | 439 kts | 41° |
| 2026-05-06 15:31 | 39.11969 | -76.28329 | 11022 ft | 439 kts | 41° |
| 2026-05-06 15:31 | 39.14212 | -76.25648 | 11022 ft | 440 kts | 41° |
| 2026-05-06 15:31 | 39.16452 | -76.22958 | 11020 ft | 440 kts | 41° |
| 2026-05-06 15:32 | 39.20935 | -76.17567 | 11024 ft | 441 kts | 41° |
| 2026-05-06 15:32 | 39.23181 | -76.14867 | 11021 ft | 441 kts | 41° |
| 2026-05-06 15:32 | 39.25427 | -76.12165 | 11022 ft | 442 kts | 41° |
| 2026-05-06 15:32 | 39.27674 | -76.09461 | 11027 ft | 442 kts | 41° |
| 2026-05-06 15:33 | 39.29919 | -76.06756 | 11021 ft | 442 kts | 41° |
| 2026-05-06 15:33 | 39.32165 | -76.04047 | 11016 ft | 442 kts | 41° |
| 2026-05-06 15:33 | 39.34410 | -76.01336 | 11014 ft | 442 kts | 42° |
| 2026-05-06 15:33 | 39.36659 | -75.98619 | 11013 ft | 443 kts | 42° |
| 2026-05-06 15:34 | 39.38910 | -75.95899 | 11012 ft | 443 kts | 42° |
| 2026-05-06 15:34 | 39.41162 | -75.93177 | 11012 ft | 443 kts | 42° |
| 2026-05-06 15:34 | 39.43411 | -75.90454 | 11015 ft | 444 kts | 42° |
| 2026-05-06 15:34 | 39.45651 | -75.87735 | 10858 ft | 435 kts | 42° |
| 2026-05-06 15:35 | 39.47830 | -75.85087 | 10385 ft | 425 kts | 42° |
| 2026-05-06 15:35 | 39.49960 | -75.82498 | 9909 ft | 415 kts | 42° |
| 2026-05-06 15:35 | 39.52037 | -75.79974 | 9408 ft | 405 kts | 43° |
| 2026-05-06 15:35 | 39.54060 | -75.77510 | 9060 ft | 392 kts | 43° |
| 2026-05-06 15:36 | 39.55998 | -75.75146 | 8996 ft | 372 kts | 43° |
| 2026-05-06 15:36 | 39.57832 | -75.72908 | 9008 ft | 353 kts | 43° |
| 2026-05-06 15:36 | 39.59575 | -75.70778 | 9016 ft | 339 kts | 43° |
| 2026-05-06 15:36 | 39.61282 | -75.68692 | 9016 ft | 335 kts | 43° |
| 2026-05-06 15:37 | 39.62978 | -75.66624 | 9016 ft | 335 kts | 43° |
| 2026-05-06 15:37 | 39.64675 | -75.64553 | 9017 ft | 335 kts | 43° |
| 2026-05-06 15:37 | 39.66377 | -75.62481 | 9016 ft | 335 kts | 42° |
| 2026-05-06 15:37 | 39.68075 | -75.60416 | 9018 ft | 335 kts | 42° |
| 2026-05-06 15:38 | 39.69774 | -75.58353 | 9017 ft | 334 kts | 43° |
| 2026-05-06 15:38 | 39.71478 | -75.56295 | 9017 ft | 334 kts | 42° |
| 2026-05-06 15:38 | 39.73183 | -75.54238 | 9015 ft | 335 kts | 42° |
| 2026-05-06 15:38 | 39.74703 | -75.51966 | 9014 ft | 334 kts | 62° |
| 2026-05-06 15:39 | 39.75608 | -75.49212 | 9013 ft | 331 kts | 75° |
| 2026-05-06 15:39 | 39.76365 | -75.46390 | 9008 ft | 331 kts | 75° |
| 2026-05-06 15:39 | 39.77111 | -75.43565 | 9011 ft | 331 kts | 75° |
| 2026-05-06 15:39 | 39.77854 | -75.40742 | 8835 ft | 329 kts | 75° |
| 2026-05-06 15:40 | 39.78594 | -75.37931 | 8489 ft | 327 kts | 75° |
| 2026-05-06 15:40 | 39.79330 | -75.35148 | 8141 ft | 325 kts | 75° |
| 2026-05-06 15:40 | 39.80065 | -75.32372 | 7820 ft | 323 kts | 75° |
| 2026-05-06 15:40 | 39.80794 | -75.29627 | 7508 ft | 321 kts | 75° |
| 2026-05-06 15:41 | 39.81526 | -75.26893 | 7194 ft | 319 kts | 75° |
| 2026-05-06 15:41 | 39.82255 | -75.24184 | 6904 ft | 316 kts | 75° |
| 2026-05-06 15:41 | 39.82980 | -75.21492 | 6595 ft | 315 kts | 75° |
| 2026-05-06 15:41 | 39.83705 | -75.18812 | 6277 ft | 314 kts | 75° |
| 2026-05-06 15:42 | 39.84434 | -75.16141 | 5952 ft | 312 kts | 75° |
| 2026-05-06 15:42 | 39.85158 | -75.13491 | 5622 ft | 310 kts | 75° |
| 2026-05-06 15:42 | 39.85874 | -75.10846 | 5257 ft | 309 kts | 75° |
| 2026-05-06 15:42 | 39.86585 | -75.08201 | 4892 ft | 309 kts | 75° |
| 2026-05-06 15:43 | 39.87289 | -75.05563 | 4552 ft | 308 kts | 75° |
| 2026-05-06 15:43 | 39.87986 | -75.02935 | 4211 ft | 306 kts | 75° |
| 2026-05-06 15:43 | 39.88674 | -75.00326 | 3889 ft | 304 kts | 75° |
| 2026-05-06 15:43 | 39.89358 | -74.97728 | 3638 ft | 301 kts | 75° |
| 2026-05-06 15:44 | 39.90082 | -74.95176 | 3424 ft | 301 kts | 66° |
| 2026-05-06 15:44 | 39.91391 | -74.93069 | 3228 ft | 300 kts | 36° |
| 2026-05-06 15:44 | 39.93213 | -74.91945 | 3063 ft | 282 kts | 6° |
| 2026-05-06 15:44 | 39.95045 | -74.92063 | 3004 ft | 249 kts | 328° |
| 2026-05-06 15:45 | 39.96225 | -74.93356 | 3017 ft | 209 kts | 286° |
| 2026-05-06 15:45 | 39.96493 | -74.94507 | 3015 ft | 197 kts | 270° |
| 2026-05-06 15:45 | 39.96757 | -74.96271 | 3014 ft | 197 kts | 268° |
| 2026-05-06 15:45 | 39.96468 | -74.97914 | 2959 ft | 185 kts | 230° |
| 2026-05-06 15:46 | 39.95531 | -74.99078 | 2851 ft | 188 kts | 223° |
| 2026-05-06 15:46 | 39.94611 | -75.00286 | 2760 ft | 187 kts | 224° |
| 2026-05-06 15:46 | 39.93701 | -75.01494 | 2656 ft | 187 kts | 223° |
| 2026-05-06 15:46 | 39.92784 | -75.02711 | 2556 ft | 189 kts | 224° |
| 2026-05-06 15:47 | 39.91860 | -75.03938 | 2453 ft | 191 kts | 224° |
| 2026-05-06 15:47 | 39.91095 | -75.05356 | 2345 ft | 194 kts | 239° |
| 2026-05-06 15:47 | 39.90607 | -75.06994 | 2271 ft | 192 kts | 247° |
| 2026-05-06 15:47 | 39.90250 | -75.08606 | 2140 ft | 179 kts | 249° |
| 2026-05-06 15:48 | 39.89940 | -75.10132 | 1923 ft | 171 kts | 249° |
| 2026-05-06 15:48 | 39.89646 | -75.11598 | 1714 ft | 165 kts | 249° |
| 2026-05-06 15:48 | 39.89363 | -75.13022 | 1497 ft | 159 kts | 249° |
| 2026-05-06 15:48 | 39.89100 | -75.14355 | 1296 ft | 143 kts | 249° |
| 2026-05-06 15:49 | 39.88869 | -75.15527 | 1115 ft | 127 kts | 248° |
| 2026-05-06 15:49 | 39.88652 | -75.16614 | 949 ft | 122 kts | 248° |
| 2026-05-06 15:49 | 39.88440 | -75.17677 | 777 ft | 121 kts | 248° |
| 2026-05-06 15:49 | 39.88233 | -75.18718 | 621 ft | 117 kts | 248° |
| 2026-05-06 15:50 | 39.88027 | -75.19753 | 465 ft | 118 kts | 249° |
| 2026-05-06 15:50 | 39.87822 | -75.20776 | 282 ft | 116 kts | 249° |
| 2026-05-06 15:50 | 39.87618 | -75.21801 | 136 ft | 118 kts | 248° |
| 2026-05-06 15:50 | 39.87417 | -75.22816 | 28 ft | 109 kts | 249° |
| 2026-05-06 15:51 | 39.87254 | -75.23622 | 22 ft | 74 kts | 255° |
| 2026-05-06 15:51 | 39.87165 | -75.24067 | 24 ft | 35 kts | 258° |
| 2026-05-06 15:51 | 39.87166 | -75.24319 | 24 ft | 22 kts | 281° |
| 2026-05-06 15:51 | 39.87199 | -75.24484 | 22 ft | 14 kts | 288° |
| 2026-05-06 15:52 | 39.87268 | -75.24494 | 23 ft | 14 kts | 62° |
| 2026-05-06 15:52 | 39.87296 | -75.24361 | 22 ft | 16 kts | 75° |
| 2026-05-06 15:52 | 39.87316 | -75.24263 | 22 ft | 9 kts | 69° |
| 2026-05-06 15:52 | 39.87378 | -75.24231 | 22 ft | 12 kts | 355° |
| 2026-05-06 15:53 | 39.87449 | -75.24241 | 25 ft | 9 kts | 351° |
| 2026-05-06 15:53 | 39.87499 | -75.24255 | 22 ft | 5 kts | 1° |
| 2026-05-06 15:53 | 39.87508 | -75.24223 | 22 ft | 4 kts | 96° |
| 2026-05-06 15:53 | 39.87504 | -75.24198 | 25 ft | 1 kts | 103° |
| 2026-05-06 15:54 | 39.87503 | -75.24196 | 24 ft | 0 kts | 103° |